sensor_id;sensor_type;location;lat;lon;timestamp;P1;durP1;ratioP1;P2;durP2;ratioP2
59486;SDS011;45298;54.918;73.504;2023-02-19T00:00:03;25.60;;;9.07;;
59486;SDS011;45298;54.918;73.504;2023-02-19T00:02:39;25.70;;;9.23;;
59486;SDS011;45298;54.918;73.504;2023-02-19T00:05:08;24.80;;;8.50;;
59486;SDS011;45298;54.918;73.504;2023-02-19T00:07:37;32.40;;;10.10;;
59486;SDS011;45298;54.918;73.504;2023-02-19T00:10:06;23.95;;;7.90;;
59486;SDS011;45298;54.918;73.504;2023-02-19T00:12:35;21.42;;;7.72;;
59486;SDS011;45298;54.918;73.504;2023-02-19T00:15:04;31.20;;;9.23;;
59486;SDS011;45298;54.918;73.504;2023-02-19T00:17:33;19.98;;;7.10;;
59486;SDS011;45298;54.918;73.504;2023-02-19T00:20:01;28.40;;;7.95;;
59486;SDS011;45298;54.918;73.504;2023-02-19T00:22:30;22.42;;;7.25;;
59486;SDS011;45298;54.918;73.504;2023-02-19T00:24:59;21.40;;;7.65;;
59486;SDS011;45298;54.918;73.504;2023-02-19T00:27:27;33.80;;;8.82;;
59486;SDS011;45298;54.918;73.504;2023-02-19T00:29:56;54.55;;;11.68;;
59486;SDS011;45298;54.918;73.504;2023-02-19T00:32:25;19.08;;;7.53;;
59486;SDS011;45298;54.918;73.504;2023-02-19T00:34:54;28.48;;;9.38;;
59486;SDS011;45298;54.918;73.504;2023-02-19T00:37:24;21.40;;;6.78;;
59486;SDS011;45298;54.918;73.504;2023-02-19T00:39:53;31.13;;;9.07;;
59486;SDS011;45298;54.918;73.504;2023-02-19T00:42:21;24.75;;;8.95;;
59486;SDS011;45298;54.918;73.504;2023-02-19T00:44:50;23.38;;;7.70;;
59486;SDS011;45298;54.918;73.504;2023-02-19T00:47:19;28.35;;;8.45;;
59486;SDS011;45298;54.918;73.504;2023-02-19T00:49:48;22.88;;;7.60;;
59486;SDS011;45298;54.918;73.504;2023-02-19T00:52:16;25.63;;;7.97;;
59486;SDS011;45298;54.918;73.504;2023-02-19T00:54:45;23.20;;;7.47;;
59486;SDS011;45298;54.918;73.504;2023-02-19T00:57:14;21.42;;;7.38;;
59486;SDS011;45298;54.918;73.504;2023-02-19T00:59:43;24.38;;;8.50;;
59486;SDS011;45298;54.918;73.504;2023-02-19T01:02:11;24.88;;;7.35;;
59486;SDS011;45298;54.918;73.504;2023-02-19T01:04:40;24.35;;;6.78;;
59486;SDS011;45298;54.918;73.504;2023-02-19T01:07:09;22.75;;;8.90;;
59486;SDS011;45298;54.918;73.504;2023-02-19T01:09:38;17.85;;;6.40;;
59486;SDS011;45298;54.918;73.504;2023-02-19T01:12:07;25.58;;;8.60;;
59486;SDS011;45298;54.918;73.504;2023-02-19T01:14:36;25.23;;;7.30;;
59486;SDS011;45298;54.918;73.504;2023-02-19T01:17:04;18.15;;;6.45;;
59486;SDS011;45298;54.918;73.504;2023-02-19T01:19:33;31.17;;;7.93;;
59486;SDS011;45298;54.918;73.504;2023-02-19T01:22:02;24.52;;;8.75;;
59486;SDS011;45298;54.918;73.504;2023-02-19T01:24:31;23.10;;;7.80;;
59486;SDS011;45298;54.918;73.504;2023-02-19T01:26:59;27.20;;;8.40;;
59486;SDS011;45298;54.918;73.504;2023-02-19T01:29:28;22.83;;;7.50;;
59486;SDS011;45298;54.918;73.504;2023-02-19T01:32:00;26.73;;;9.27;;
59486;SDS011;45298;54.918;73.504;2023-02-19T01:34:29;28.00;;;9.05;;
59486;SDS011;45298;54.918;73.504;2023-02-19T01:37:00;36.67;;;11.00;;
59486;SDS011;45298;54.918;73.504;2023-02-19T01:39:29;31.13;;;10.70;;
59486;SDS011;45298;54.918;73.504;2023-02-19T01:41:58;26.48;;;9.52;;
59486;SDS011;45298;54.918;73.504;2023-02-19T01:46:55;31.17;;;9.48;;
59486;SDS011;45298;54.918;73.504;2023-02-19T01:49:36;33.80;;;10.50;;
59486;SDS011;45298;54.918;73.504;2023-02-19T01:52:26;31.08;;;10.00;;
59486;SDS011;45298;54.918;73.504;2023-02-19T01:55:01;27.38;;;10.13;;
59486;SDS011;45298;54.918;73.504;2023-02-19T01:57:34;28.95;;;9.23;;
59486;SDS011;45298;54.918;73.504;2023-02-19T02:00:08;24.27;;;8.18;;
59486;SDS011;45298;54.918;73.504;2023-02-19T02:02:40;28.75;;;9.20;;
59486;SDS011;45298;54.918;73.504;2023-02-19T02:05:23;27.65;;;8.88;;
59486;SDS011;45298;54.918;73.504;2023-02-19T02:08:12;22.17;;;7.40;;
59486;SDS011;45298;54.918;73.504;2023-02-19T02:11:02;29.05;;;8.73;;
59486;SDS011;45298;54.918;73.504;2023-02-19T02:13:32;30.23;;;8.50;;
59486;SDS011;45298;54.918;73.504;2023-02-19T02:16:09;18.73;;;7.30;;
59486;SDS011;45298;54.918;73.504;2023-02-19T02:21:58;22.60;;;7.43;;
59486;SDS011;45298;54.918;73.504;2023-02-19T02:27:42;25.75;;;7.57;;
59486;SDS011;45298;54.918;73.504;2023-02-19T02:38:22;32.85;;;8.45;;
59486;SDS011;45298;54.918;73.504;2023-02-19T02:40:56;22.27;;;7.38;;
59486;SDS011;45298;54.918;73.504;2023-02-19T02:43:25;21.10;;;7.15;;
59486;SDS011;45298;54.918;73.504;2023-02-19T02:45:54;20.17;;;7.05;;
59486;SDS011;45298;54.918;73.504;2023-02-19T02:54:10;26.52;;;7.18;;
59486;SDS011;45298;54.918;73.504;2023-02-19T02:57:01;20.10;;;7.13;;
59486;SDS011;45298;54.918;73.504;2023-02-19T02:59:35;21.75;;;6.30;;
59486;SDS011;45298;54.918;73.504;2023-02-19T03:02:07;20.33;;;7.53;;
59486;SDS011;45298;54.918;73.504;2023-02-19T03:07:55;22.65;;;8.07;;
59486;SDS011;45298;54.918;73.504;2023-02-19T03:10:50;16.30;;;6.90;;
59486;SDS011;45298;54.918;73.504;2023-02-19T03:13:26;22.67;;;7.60;;
59486;SDS011;45298;54.918;73.504;2023-02-19T03:16:20;27.30;;;7.68;;
59486;SDS011;45298;54.918;73.504;2023-02-19T03:19:13;21.13;;;6.95;;
59486;SDS011;45298;54.918;73.504;2023-02-19T03:24:28;29.60;;;7.93;;
59486;SDS011;45298;54.918;73.504;2023-02-19T03:27:18;19.20;;;7.57;;
59486;SDS011;45298;54.918;73.504;2023-02-19T03:29:53;26.45;;;7.40;;
59486;SDS011;45298;54.918;73.504;2023-02-19T03:32:30;24.42;;;6.88;;
59486;SDS011;45298;54.918;73.504;2023-02-19T03:35:05;26.08;;;7.53;;
59486;SDS011;45298;54.918;73.504;2023-02-19T03:37:43;18.30;;;6.35;;
59486;SDS011;45298;54.918;73.504;2023-02-19T03:40:30;23.65;;;7.35;;
59486;SDS011;45298;54.918;73.504;2023-02-19T03:45:48;21.15;;;8.45;;
59486;SDS011;45298;54.918;73.504;2023-02-19T03:51:19;26.02;;;7.50;;
59486;SDS011;45298;54.918;73.504;2023-02-19T03:56:58;24.15;;;7.95;;
59486;SDS011;45298;54.918;73.504;2023-02-19T04:02:17;27.75;;;8.10;;
59486;SDS011;45298;54.918;73.504;2023-02-19T04:05:08;26.98;;;8.60;;
59486;SDS011;45298;54.918;73.504;2023-02-19T04:07:45;23.15;;;8.13;;
59486;SDS011;45298;54.918;73.504;2023-02-19T04:10:25;27.85;;;8.95;;
59486;SDS011;45298;54.918;73.504;2023-02-19T04:13:00;22.93;;;7.93;;
59486;SDS011;45298;54.918;73.504;2023-02-19T04:15:33;25.05;;;8.65;;
59486;SDS011;45298;54.918;73.504;2023-02-19T04:18:08;22.15;;;7.97;;
59486;SDS011;45298;54.918;73.504;2023-02-19T04:20:42;27.63;;;8.23;;
59486;SDS011;45298;54.918;73.504;2023-02-19T04:23:13;25.30;;;8.18;;
59486;SDS011;45298;54.918;73.504;2023-02-19T04:25:47;24.88;;;8.05;;
59486;SDS011;45298;54.918;73.504;2023-02-19T04:28:22;26.73;;;8.52;;
59486;SDS011;45298;54.918;73.504;2023-02-19T04:30:50;26.80;;;8.20;;
59486;SDS011;45298;54.918;73.504;2023-02-19T04:33:19;23.55;;;7.97;;
59486;SDS011;45298;54.918;73.504;2023-02-19T04:35:48;21.55;;;8.75;;
59486;SDS011;45298;54.918;73.504;2023-02-19T04:38:17;26.90;;;8.85;;
59486;SDS011;45298;54.918;73.504;2023-02-19T04:40:45;24.05;;;8.00;;
59486;SDS011;45298;54.918;73.504;2023-02-19T04:43:14;26.33;;;7.85;;
59486;SDS011;45298;54.918;73.504;2023-02-19T04:45:43;23.50;;;7.82;;
59486;SDS011;45298;54.918;73.504;2023-02-19T04:48:12;26.15;;;7.55;;
59486;SDS011;45298;54.918;73.504;2023-02-19T04:50:41;25.05;;;7.95;;
59486;SDS011;45298;54.918;73.504;2023-02-19T04:53:10;19.90;;;8.02;;
59486;SDS011;45298;54.918;73.504;2023-02-19T04:55:39;25.77;;;7.60;;
59486;SDS011;45298;54.918;73.504;2023-02-19T04:58:08;20.90;;;7.70;;
59486;SDS011;45298;54.918;73.504;2023-02-19T05:00:36;19.50;;;6.97;;
59486;SDS011;45298;54.918;73.504;2023-02-19T05:03:05;25.60;;;7.93;;
59486;SDS011;45298;54.918;73.504;2023-02-19T05:05:34;26.85;;;7.82;;
59486;SDS011;45298;54.918;73.504;2023-02-19T05:08:03;22.40;;;7.40;;
59486;SDS011;45298;54.918;73.504;2023-02-19T05:10:32;23.75;;;8.02;;
59486;SDS011;45298;54.918;73.504;2023-02-19T05:13:01;27.48;;;8.30;;
59486;SDS011;45298;54.918;73.504;2023-02-19T05:15:30;33.22;;;8.38;;
59486;SDS011;45298;54.918;73.504;2023-02-19T05:17:58;25.80;;;8.18;;
59486;SDS011;45298;54.918;73.504;2023-02-19T05:20:27;26.10;;;9.07;;
59486;SDS011;45298;54.918;73.504;2023-02-19T05:22:56;28.02;;;8.20;;
59486;SDS011;45298;54.918;73.504;2023-02-19T05:25:25;24.05;;;8.13;;
59486;SDS011;45298;54.918;73.504;2023-02-19T05:27:53;21.42;;;7.15;;
59486;SDS011;45298;54.918;73.504;2023-02-19T05:30:51;21.13;;;7.13;;
59486;SDS011;45298;54.918;73.504;2023-02-19T05:33:21;24.75;;;8.52;;
59486;SDS011;45298;54.918;73.504;2023-02-19T05:35:53;28.52;;;7.45;;
59486;SDS011;45298;54.918;73.504;2023-02-19T05:38:22;22.20;;;7.57;;
59486;SDS011;45298;54.918;73.504;2023-02-19T05:40:51;30.55;;;8.50;;
59486;SDS011;45298;54.918;73.504;2023-02-19T05:43:20;23.15;;;7.90;;
59486;SDS011;45298;54.918;73.504;2023-02-19T05:45:49;31.55;;;8.88;;
59486;SDS011;45298;54.918;73.504;2023-02-19T05:48:20;23.48;;;8.00;;
59486;SDS011;45298;54.918;73.504;2023-02-19T05:50:49;27.23;;;8.38;;
59486;SDS011;45298;54.918;73.504;2023-02-19T05:53:19;25.10;;;8.80;;
59486;SDS011;45298;54.918;73.504;2023-02-19T05:55:48;22.45;;;8.35;;
59486;SDS011;45298;54.918;73.504;2023-02-19T05:58:17;23.02;;;7.97;;
59486;SDS011;45298;54.918;73.504;2023-02-19T06:00:46;22.55;;;7.95;;
59486;SDS011;45298;54.918;73.504;2023-02-19T06:03:15;22.33;;;8.20;;
59486;SDS011;45298;54.918;73.504;2023-02-19T06:05:43;22.92;;;7.95;;
59486;SDS011;45298;54.918;73.504;2023-02-19T06:08:12;26.13;;;8.38;;
59486;SDS011;45298;54.918;73.504;2023-02-19T06:10:42;21.38;;;7.43;;
59486;SDS011;45298;54.918;73.504;2023-02-19T06:13:11;23.95;;;8.35;;
59486;SDS011;45298;54.918;73.504;2023-02-19T06:15:41;23.33;;;9.10;;
59486;SDS011;45298;54.918;73.504;2023-02-19T06:18:10;21.48;;;7.63;;
59486;SDS011;45298;54.918;73.504;2023-02-19T06:20:42;19.75;;;6.53;;
59486;SDS011;45298;54.918;73.504;2023-02-19T06:23:11;25.08;;;7.35;;
59486;SDS011;45298;54.918;73.504;2023-02-19T06:25:39;22.63;;;8.20;;
59486;SDS011;45298;54.918;73.504;2023-02-19T06:28:09;23.08;;;8.43;;
59486;SDS011;45298;54.918;73.504;2023-02-19T06:30:38;26.20;;;8.63;;
59486;SDS011;45298;54.918;73.504;2023-02-19T06:33:07;21.63;;;7.47;;
59486;SDS011;45298;54.918;73.504;2023-02-19T06:35:36;24.45;;;8.05;;
59486;SDS011;45298;54.918;73.504;2023-02-19T06:38:04;27.05;;;8.68;;
59486;SDS011;45298;54.918;73.504;2023-02-19T06:40:33;23.55;;;8.05;;
59486;SDS011;45298;54.918;73.504;2023-02-19T06:43:02;23.75;;;8.00;;
59486;SDS011;45298;54.918;73.504;2023-02-19T06:45:31;25.27;;;8.48;;
59486;SDS011;45298;54.918;73.504;2023-02-19T06:47:59;24.58;;;8.57;;
59486;SDS011;45298;54.918;73.504;2023-02-19T06:50:28;22.05;;;7.63;;
59486;SDS011;45298;54.918;73.504;2023-02-19T06:52:57;26.15;;;8.00;;
59486;SDS011;45298;54.918;73.504;2023-02-19T06:55:26;22.73;;;9.05;;
59486;SDS011;45298;54.918;73.504;2023-02-19T06:57:55;23.50;;;8.70;;
59486;SDS011;45298;54.918;73.504;2023-02-19T07:00:24;24.38;;;8.93;;
59486;SDS011;45298;54.918;73.504;2023-02-19T07:02:53;26.67;;;8.80;;
59486;SDS011;45298;54.918;73.504;2023-02-19T07:05:23;27.02;;;9.43;;
59486;SDS011;45298;54.918;73.504;2023-02-19T07:07:52;28.90;;;8.85;;
59486;SDS011;45298;54.918;73.504;2023-02-19T07:10:21;20.85;;;7.88;;
59486;SDS011;45298;54.918;73.504;2023-02-19T07:12:50;28.10;;;9.38;;
59486;SDS011;45298;54.918;73.504;2023-02-19T07:15:19;25.67;;;9.10;;
59486;SDS011;45298;54.918;73.504;2023-02-19T07:17:50;25.10;;;9.05;;
59486;SDS011;45298;54.918;73.504;2023-02-19T07:20:19;24.35;;;8.07;;
59486;SDS011;45298;54.918;73.504;2023-02-19T07:22:48;29.73;;;8.70;;
59486;SDS011;45298;54.918;73.504;2023-02-19T07:25:17;21.08;;;7.72;;
59486;SDS011;45298;54.918;73.504;2023-02-19T07:27:48;21.95;;;8.15;;
59486;SDS011;45298;54.918;73.504;2023-02-19T07:30:17;20.10;;;7.70;;
59486;SDS011;45298;54.918;73.504;2023-02-19T07:32:46;21.55;;;7.97;;
59486;SDS011;45298;54.918;73.504;2023-02-19T07:35:15;21.65;;;8.32;;
59486;SDS011;45298;54.918;73.504;2023-02-19T07:37:44;27.02;;;8.73;;
59486;SDS011;45298;54.918;73.504;2023-02-19T07:40:12;22.40;;;8.63;;
59486;SDS011;45298;54.918;73.504;2023-02-19T07:42:42;24.17;;;8.88;;
59486;SDS011;45298;54.918;73.504;2023-02-19T07:45:11;25.63;;;9.75;;
59486;SDS011;45298;54.918;73.504;2023-02-19T07:47:39;26.80;;;9.38;;
59486;SDS011;45298;54.918;73.504;2023-02-19T07:50:08;26.67;;;9.05;;
59486;SDS011;45298;54.918;73.504;2023-02-19T07:52:40;23.48;;;8.80;;
59486;SDS011;45298;54.918;73.504;2023-02-19T07:55:08;23.33;;;9.10;;
59486;SDS011;45298;54.918;73.504;2023-02-19T07:57:37;21.30;;;9.07;;
59486;SDS011;45298;54.918;73.504;2023-02-19T08:00:06;24.55;;;9.48;;
59486;SDS011;45298;54.918;73.504;2023-02-19T08:02:41;26.05;;;9.70;;
59486;SDS011;45298;54.918;73.504;2023-02-19T08:05:29;25.15;;;9.10;;
59486;SDS011;45298;54.918;73.504;2023-02-19T08:07:59;22.58;;;8.60;;
59486;SDS011;45298;54.918;73.504;2023-02-19T08:10:28;25.23;;;9.35;;
59486;SDS011;45298;54.918;73.504;2023-02-19T08:13:15;20.92;;;8.77;;
59486;SDS011;45298;54.918;73.504;2023-02-19T08:16:07;24.30;;;9.20;;
59486;SDS011;45298;54.918;73.504;2023-02-19T08:18:48;26.98;;;9.13;;
59486;SDS011;45298;54.918;73.504;2023-02-19T08:21:17;23.15;;;8.98;;
59486;SDS011;45298;54.918;73.504;2023-02-19T08:23:45;28.15;;;10.00;;
59486;SDS011;45298;54.918;73.504;2023-02-19T08:26:17;23.85;;;9.48;;
59486;SDS011;45298;54.918;73.504;2023-02-19T08:28:46;22.80;;;9.10;;
59486;SDS011;45298;54.918;73.504;2023-02-19T08:31:16;26.48;;;9.27;;
59486;SDS011;45298;54.918;73.504;2023-02-19T08:33:45;25.27;;;9.15;;
59486;SDS011;45298;54.918;73.504;2023-02-19T08:36:13;25.73;;;9.82;;
59486;SDS011;45298;54.918;73.504;2023-02-19T08:38:42;24.60;;;8.90;;
59486;SDS011;45298;54.918;73.504;2023-02-19T08:41:13;26.58;;;10.13;;
59486;SDS011;45298;54.918;73.504;2023-02-19T08:43:42;28.42;;;9.65;;
59486;SDS011;45298;54.918;73.504;2023-02-19T08:46:11;24.48;;;8.65;;
59486;SDS011;45298;54.918;73.504;2023-02-19T08:48:40;28.45;;;9.93;;
59486;SDS011;45298;54.918;73.504;2023-02-19T08:51:10;25.40;;;9.80;;
59486;SDS011;45298;54.918;73.504;2023-02-19T08:53:39;23.45;;;9.25;;
59486;SDS011;45298;54.918;73.504;2023-02-19T08:56:09;16.60;;;6.75;;
59486;SDS011;45298;54.918;73.504;2023-02-19T08:58:40;29.20;;;9.73;;
59486;SDS011;45298;54.918;73.504;2023-02-19T09:01:10;30.55;;;10.70;;
59486;SDS011;45298;54.918;73.504;2023-02-19T09:03:41;27.27;;;9.95;;
59486;SDS011;45298;54.918;73.504;2023-02-19T09:06:13;29.55;;;9.25;;
59486;SDS011;45298;54.918;73.504;2023-02-19T09:11:13;24.73;;;8.30;;
59486;SDS011;45298;54.918;73.504;2023-02-19T09:13:42;29.08;;;10.10;;
59486;SDS011;45298;54.918;73.504;2023-02-19T09:16:11;28.88;;;10.35;;
59486;SDS011;45298;54.918;73.504;2023-02-19T09:18:40;22.48;;;8.75;;
59486;SDS011;45298;54.918;73.504;2023-02-19T09:21:08;31.70;;;10.57;;
59486;SDS011;45298;54.918;73.504;2023-02-19T09:23:38;26.42;;;9.27;;
59486;SDS011;45298;54.918;73.504;2023-02-19T09:26:07;26.15;;;9.60;;
59486;SDS011;45298;54.918;73.504;2023-02-19T09:28:38;30.60;;;10.10;;
59486;SDS011;45298;54.918;73.504;2023-02-19T09:31:12;27.80;;;10.32;;
59486;SDS011;45298;54.918;73.504;2023-02-19T09:33:45;25.60;;;9.32;;
59486;SDS011;45298;54.918;73.504;2023-02-19T09:36:16;27.45;;;9.70;;
59486;SDS011;45298;54.918;73.504;2023-02-19T09:38:46;23.08;;;8.90;;
59486;SDS011;45298;54.918;73.504;2023-02-19T09:41:23;27.85;;;9.98;;
59486;SDS011;45298;54.918;73.504;2023-02-19T09:43:58;26.75;;;8.98;;
59486;SDS011;45298;54.918;73.504;2023-02-19T09:46:35;20.95;;;8.45;;
59486;SDS011;45298;54.918;73.504;2023-02-19T09:49:13;28.20;;;9.20;;
59486;SDS011;45298;54.918;73.504;2023-02-19T09:51:50;24.25;;;9.35;;
59486;SDS011;45298;54.918;73.504;2023-02-19T09:54:24;24.90;;;9.27;;
59486;SDS011;45298;54.918;73.504;2023-02-19T09:56:55;25.15;;;8.98;;
59486;SDS011;45298;54.918;73.504;2023-02-19T09:59:28;23.52;;;9.05;;
59486;SDS011;45298;54.918;73.504;2023-02-19T10:02:13;24.33;;;9.18;;
59486;SDS011;45298;54.918;73.504;2023-02-19T10:04:44;28.23;;;9.32;;
59486;SDS011;45298;54.918;73.504;2023-02-19T10:07:16;24.40;;;8.50;;
59486;SDS011;45298;54.918;73.504;2023-02-19T10:12:49;25.05;;;8.57;;
59486;SDS011;45298;54.918;73.504;2023-02-19T10:17:53;30.23;;;9.43;;
59486;SDS011;45298;54.918;73.504;2023-02-19T10:20:23;23.73;;;8.43;;
59486;SDS011;45298;54.918;73.504;2023-02-19T10:25:39;22.00;;;8.60;;
59486;SDS011;45298;54.918;73.504;2023-02-19T10:28:30;30.05;;;9.52;;
59486;SDS011;45298;54.918;73.504;2023-02-19T10:31:02;24.77;;;8.48;;
59486;SDS011;45298;54.918;73.504;2023-02-19T10:33:48;21.92;;;8.63;;
59486;SDS011;45298;54.918;73.504;2023-02-19T10:36:32;26.55;;;8.25;;
59486;SDS011;45298;54.918;73.504;2023-02-19T10:41:50;24.55;;;8.13;;
59486;SDS011;45298;54.918;73.504;2023-02-19T10:44:23;22.92;;;8.20;;
59486;SDS011;45298;54.918;73.504;2023-02-19T10:46:58;23.35;;;8.50;;
59486;SDS011;45298;54.918;73.504;2023-02-19T10:52:20;21.85;;;8.32;;
59486;SDS011;45298;54.918;73.504;2023-02-19T10:55:37;23.52;;;9.50;;
59486;SDS011;45298;54.918;73.504;2023-02-19T10:57:47;20.55;;;7.63;;
59486;SDS011;45298;54.918;73.504;2023-02-19T11:00:24;23.10;;;8.02;;
59486;SDS011;45298;54.918;73.504;2023-02-19T11:05:53;21.65;;;7.30;;
59486;SDS011;45298;54.918;73.504;2023-02-19T11:08:28;22.50;;;7.68;;
59486;SDS011;45298;54.918;73.504;2023-02-19T11:11:01;23.85;;;9.13;;
59486;SDS011;45298;54.918;73.504;2023-02-19T11:13:30;20.08;;;7.88;;
59486;SDS011;45298;54.918;73.504;2023-02-19T11:16:04;21.30;;;8.15;;
59486;SDS011;45298;54.918;73.504;2023-02-19T11:18:34;22.52;;;8.77;;
59486;SDS011;45298;54.918;73.504;2023-02-19T11:21:03;28.63;;;9.00;;
59486;SDS011;45298;54.918;73.504;2023-02-19T11:23:35;28.80;;;9.55;;
59486;SDS011;45298;54.918;73.504;2023-02-19T11:26:21;25.13;;;9.40;;
59486;SDS011;45298;54.918;73.504;2023-02-19T11:28:57;25.88;;;9.70;;
59486;SDS011;45298;54.918;73.504;2023-02-19T11:31:28;26.42;;;9.90;;
59486;SDS011;45298;54.918;73.504;2023-02-19T11:37:06;23.33;;;9.48;;
59486;SDS011;45298;54.918;73.504;2023-02-19T11:39:36;25.73;;;9.13;;
59486;SDS011;45298;54.918;73.504;2023-02-19T11:50:28;36.50;;;11.65;;
59486;SDS011;45298;54.918;73.504;2023-02-19T11:53:28;32.65;;;11.43;;
59486;SDS011;45298;54.918;73.504;2023-02-19T11:56:12;34.33;;;11.87;;
59486;SDS011;45298;54.918;73.504;2023-02-19T12:01:59;37.67;;;12.88;;
59486;SDS011;45298;54.918;73.504;2023-02-19T12:14:04;35.00;;;11.60;;
59486;SDS011;45298;54.918;73.504;2023-02-19T12:25:02;32.85;;;11.63;;
59486;SDS011;45298;54.918;73.504;2023-02-19T12:39:33;38.45;;;12.25;;
59486;SDS011;45298;54.918;73.504;2023-02-19T12:42:21;40.85;;;10.70;;
59486;SDS011;45298;54.918;73.504;2023-02-19T12:44:58;32.95;;;11.07;;
59486;SDS011;45298;54.918;73.504;2023-02-19T12:47:35;31.83;;;10.55;;
59486;SDS011;45298;54.918;73.504;2023-02-19T12:50:15;36.22;;;11.85;;
59486;SDS011;45298;54.918;73.504;2023-02-19T12:52:50;28.48;;;10.20;;
59486;SDS011;45298;54.918;73.504;2023-02-19T12:55:32;30.88;;;10.60;;
59486;SDS011;45298;54.918;73.504;2023-02-19T12:58:03;29.75;;;10.73;;
59486;SDS011;45298;54.918;73.504;2023-02-19T13:00:42;28.88;;;10.30;;
59486;SDS011;45298;54.918;73.504;2023-02-19T13:03:18;28.38;;;9.85;;
59486;SDS011;45298;54.918;73.504;2023-02-19T13:08:46;26.60;;;9.80;;
59486;SDS011;45298;54.918;73.504;2023-02-19T13:11:40;40.75;;;12.90;;
59486;SDS011;45298;54.918;73.504;2023-02-19T13:14:35;31.33;;;10.07;;
59486;SDS011;45298;54.918;73.504;2023-02-19T13:17:33;31.13;;;11.18;;
59486;SDS011;45298;54.918;73.504;2023-02-19T13:37:22;35.88;;;11.20;;
59486;SDS011;45298;54.918;73.504;2023-02-19T13:39:53;32.60;;;10.98;;
59486;SDS011;45298;54.918;73.504;2023-02-19T13:42:32;38.30;;;13.02;;
59486;SDS011;45298;54.918;73.504;2023-02-19T13:45:04;26.70;;;9.77;;
59486;SDS011;45298;54.918;73.504;2023-02-19T13:48:35;34.15;;;11.45;;
59486;SDS011;45298;54.918;73.504;2023-02-19T13:50:44;27.30;;;10.15;;
59486;SDS011;45298;54.918;73.504;2023-02-19T14:04:23;36.22;;;11.20;;
59486;SDS011;45298;54.918;73.504;2023-02-19T14:10:03;28.98;;;10.38;;
59486;SDS011;45298;54.918;73.504;2023-02-19T14:12:38;39.78;;;12.45;;
59486;SDS011;45298;54.918;73.504;2023-02-19T14:21:16;32.53;;;11.00;;
59486;SDS011;45298;54.918;73.504;2023-02-19T14:23:55;28.93;;;10.43;;
59486;SDS011;45298;54.918;73.504;2023-02-19T14:26:25;35.47;;;10.30;;
59486;SDS011;45298;54.918;73.504;2023-02-19T14:28:54;29.88;;;10.77;;
59486;SDS011;45298;54.918;73.504;2023-02-19T14:31:27;42.05;;;13.32;;
59486;SDS011;45298;54.918;73.504;2023-02-19T14:34:04;33.33;;;10.40;;
59486;SDS011;45298;54.918;73.504;2023-02-19T14:36:55;31.92;;;10.85;;
59486;SDS011;45298;54.918;73.504;2023-02-19T14:39:31;29.23;;;10.48;;
59486;SDS011;45298;54.918;73.504;2023-02-19T14:42:15;30.08;;;10.18;;
59486;SDS011;45298;54.918;73.504;2023-02-19T14:44:50;30.30;;;10.88;;
59486;SDS011;45298;54.918;73.504;2023-02-19T14:47:24;28.42;;;9.57;;
59486;SDS011;45298;54.918;73.504;2023-02-19T14:50:00;27.48;;;10.40;;
59486;SDS011;45298;54.918;73.504;2023-02-19T14:55:19;32.45;;;11.27;;
59486;SDS011;45298;54.918;73.504;2023-02-19T14:57:53;26.15;;;9.48;;
59486;SDS011;45298;54.918;73.504;2023-02-19T15:00:28;33.00;;;11.13;;
59486;SDS011;45298;54.918;73.504;2023-02-19T15:03:04;25.92;;;10.50;;
59486;SDS011;45298;54.918;73.504;2023-02-19T15:05:34;29.17;;;10.05;;
59486;SDS011;45298;54.918;73.504;2023-02-19T15:08:24;28.05;;;9.98;;
59486;SDS011;45298;54.918;73.504;2023-02-19T15:13:29;28.85;;;9.35;;
59486;SDS011;45298;54.918;73.504;2023-02-19T15:15:58;25.75;;;9.63;;
59486;SDS011;45298;54.918;73.504;2023-02-19T15:18:27;30.77;;;9.57;;
59486;SDS011;45298;54.918;73.504;2023-02-19T15:20:57;23.20;;;8.35;;
59486;SDS011;45298;54.918;73.504;2023-02-19T15:23:30;28.83;;;9.65;;
59486;SDS011;45298;54.918;73.504;2023-02-19T15:26:03;33.88;;;10.68;;
59486;SDS011;45298;54.918;73.504;2023-02-19T15:28:33;31.08;;;10.57;;
59486;SDS011;45298;54.918;73.504;2023-02-19T15:31:03;37.88;;;12.40;;
59486;SDS011;45298;54.918;73.504;2023-02-19T15:33:34;29.23;;;9.60;;
59486;SDS011;45298;54.918;73.504;2023-02-19T15:36:05;26.67;;;8.43;;
59486;SDS011;45298;54.918;73.504;2023-02-19T15:38:36;34.53;;;10.63;;
59486;SDS011;45298;54.918;73.504;2023-02-19T15:41:05;31.83;;;9.80;;
59486;SDS011;45298;54.918;73.504;2023-02-19T15:43:43;26.55;;;9.20;;
59486;SDS011;45298;54.918;73.504;2023-02-19T15:46:21;27.40;;;9.32;;
59486;SDS011;45298;54.918;73.504;2023-02-19T15:48:57;29.92;;;10.45;;
59486;SDS011;45298;54.918;73.504;2023-02-19T15:51:34;30.35;;;10.00;;
59486;SDS011;45298;54.918;73.504;2023-02-19T15:54:24;31.30;;;10.25;;
59486;SDS011;45298;54.918;73.504;2023-02-19T15:56:58;34.20;;;11.32;;
59486;SDS011;45298;54.918;73.504;2023-02-19T16:02:12;32.40;;;10.65;;
59486;SDS011;45298;54.918;73.504;2023-02-19T16:04:43;28.70;;;8.75;;
59486;SDS011;45298;54.918;73.504;2023-02-19T16:07:24;27.45;;;10.07;;
59486;SDS011;45298;54.918;73.504;2023-02-19T16:10:06;38.15;;;12.63;;
59486;SDS011;45298;54.918;73.504;2023-02-19T16:12:56;36.50;;;12.00;;
59486;SDS011;45298;54.918;73.504;2023-02-19T16:15:27;28.27;;;10.05;;
59486;SDS011;45298;54.918;73.504;2023-02-19T16:17:57;29.45;;;10.18;;
59486;SDS011;45298;54.918;73.504;2023-02-19T16:20:34;41.92;;;12.65;;
59486;SDS011;45298;54.918;73.504;2023-02-19T16:23:08;31.25;;;10.00;;
59486;SDS011;45298;54.918;73.504;2023-02-19T16:25:43;37.50;;;11.80;;
59486;SDS011;45298;54.918;73.504;2023-02-19T16:28:20;34.40;;;10.25;;
59486;SDS011;45298;54.918;73.504;2023-02-19T16:31:07;29.00;;;9.40;;
59486;SDS011;45298;54.918;73.504;2023-02-19T16:33:45;30.35;;;10.63;;
59486;SDS011;45298;54.918;73.504;2023-02-19T16:41:26;36.15;;;12.07;;
59486;SDS011;45298;54.918;73.504;2023-02-19T16:43:55;30.58;;;10.35;;
59486;SDS011;45298;54.918;73.504;2023-02-19T16:46:24;35.35;;;11.40;;
59486;SDS011;45298;54.918;73.504;2023-02-19T16:48:53;32.88;;;11.13;;
59486;SDS011;45298;54.918;73.504;2023-02-19T16:51:25;44.55;;;13.88;;
59486;SDS011;45298;54.918;73.504;2023-02-19T16:53:54;34.33;;;10.43;;
59486;SDS011;45298;54.918;73.504;2023-02-19T16:56:23;38.97;;;12.85;;
59486;SDS011;45298;54.918;73.504;2023-02-19T16:58:52;31.27;;;10.85;;
59486;SDS011;45298;54.918;73.504;2023-02-19T17:01:21;38.05;;;10.32;;
59486;SDS011;45298;54.918;73.504;2023-02-19T17:03:50;36.08;;;11.93;;
59486;SDS011;45298;54.918;73.504;2023-02-19T17:06:27;36.65;;;12.45;;
59486;SDS011;45298;54.918;73.504;2023-02-19T17:08:56;46.90;;;14.45;;
59486;SDS011;45298;54.918;73.504;2023-02-19T17:11:25;45.45;;;12.13;;
59486;SDS011;45298;54.918;73.504;2023-02-19T17:13:54;35.80;;;10.38;;
59486;SDS011;45298;54.918;73.504;2023-02-19T17:16:27;36.50;;;11.60;;
59486;SDS011;45298;54.918;73.504;2023-02-19T17:18:58;36.35;;;11.40;;
59486;SDS011;45298;54.918;73.504;2023-02-19T17:21:28;25.30;;;8.18;;
59486;SDS011;45298;54.918;73.504;2023-02-19T17:24:00;43.90;;;12.45;;
59486;SDS011;45298;54.918;73.504;2023-02-19T17:26:31;31.42;;;10.93;;
59486;SDS011;45298;54.918;73.504;2023-02-19T17:29:02;34.60;;;11.35;;